Time;durP1;ratioP1;P1;durP2;ratioP2;P2;SDS_P1;SDS_P2;PMS_P1;PMS_P2;Temp;Humidity;BMP_temperature;BMP_pressure;BME280_temperature;BME280_humidity;BME280_pressure;Samples;Min_cycle;Max_cycle;Signal;HPM_P1;HPM_P2
2022/11/30 00:01:23;;;;;;;32.58;14.13;;;;;;;-6.63;58.53;102269.00;6147745;23;20383;-85
2022/11/30 00:03:56;;;;;;;41.92;13.32;;;;;;;-7.01;58.95;102244.75;6199311;23;20021;-85
2022/11/30 00:06:25;;;;;;;32.40;12.85;;;;;;;-6.99;59.50;102272.06;6200277;23;20072;-84
2022/11/30 00:08:57;;;;;;;;;;;;;;;-6.96;59.39;102269.97;6176264;23;20016;-85
2022/11/30 00:11:28;;;;;;;29.95;12.82;;;;;;;-7.01;59.54;102261.56;6199631;23;19912;-87
2022/11/30 00:13:56;;;;;;;37.97;13.75;;;;;;;-7.08;59.42;102233.78;6171165;23;20029;-84
2022/11/30 00:16:23;;;;;;;35.25;13.30;;;;;;;-7.03;59.13;102231.56;6144882;23;20506;-85
2022/11/30 00:18:50;;;;;;;33.78;12.95;;;;;;;-6.90;59.02;102244.72;6197362;23;20161;-85
2022/11/30 00:21:18;;;;;;;34.05;13.77;;;;;;;-6.63;58.45;102252.22;6196654;23;20024;-89
2022/11/30 00:23:47;;;;;;;32.80;12.63;;;;;;;-6.49;57.67;102262.56;6169904;23;20048;-85
2022/11/30 00:26:17;;;;;;;28.45;12.82;;;;;;;-6.48;57.42;102252.75;6145212;23;20021;-85
2022/11/30 00:28:47;;;;;;;32.30;12.98;;;;;;;-6.70;57.76;102243.06;6170183;23;20048;-89
2022/11/30 00:31:19;;;;;;;42.17;15.23;;;;;;;-6.59;57.90;102258.94;6147133;23;20349;-86
2022/11/30 00:33:45;;;;;;;33.35;12.52;;;;;;;-6.59;57.18;102236.81;6169068;23;20021;-84
2022/11/30 00:36:17;;;;;;;43.83;13.93;;;;;;;-6.72;57.91;102247.66;6157999;23;20017;-81
2022/11/30 00:38:51;;;;;;;41.90;14.20;;;;;;;-6.73;58.11;102236.16;6180075;23;20048;-82
2022/11/30 00:41:19;;;;;;;33.60;13.30;;;;;;;-6.36;57.80;102248.19;6199187;23;20017;-83
2022/11/30 00:43:45;;;;;;;29.65;13.38;;;;;;;-6.24;57.41;102241.84;6119720;23;20072;-87
2022/11/30 00:46:11;;;;;;;33.22;14.23;;;;;;;-6.43;57.40;102203.47;6194804;23;20072;-85
2022/11/30 00:48:39;;;;;;;41.05;13.82;;;;;;;-6.06;56.70;102245.59;6194105;23;20021;-83
2022/11/30 00:51:06;;;;;;;30.50;12.45;;;;;;;-6.43;56.68;102179.50;6144636;23;20032;-85
2022/11/30 00:53:33;;;;;;;39.83;13.90;;;;;;;-6.04;56.44;102240.13;6195051;23;20017;-85
2022/11/30 00:55:59;;;;;;;33.80;13.75;;;;;;;-6.31;56.66;102187.44;6146707;23;20017;-85
2022/11/30 00:58:29;;;;;;;33.40;13.65;;;;;;;-5.98;56.32;102236.94;6194201;23;20021;-84
2022/11/30 01:01:00;;;;;;;30.20;13.18;;;;;;;-5.95;56.23;102237.50;6145055;23;20054;-84
2022/11/30 01:03:32;;;;;;;36.10;14.45;;;;;;;-6.11;55.89;102223.84;6195046;23;20017;-85
2022/11/30 01:06:08;;;;;;;42.08;14.55;;;;;;;-6.24;56.03;102220.53;6195063;23;20383;-84
2022/11/30 01:08:34;;;;;;;36.17;14.18;;;;;;;-6.34;56.46;102204.50;6192198;23;20025;-84
2022/11/30 01:11:07;;;;;;;44.23;14.03;;;;;;;-6.16;56.05;102226.03;6167805;23;20032;-83
2022/11/30 01:13:33;;;;;;;32.97;13.68;;;;;;;-6.16;56.15;102216.25;6119330;23;20269;-85
2022/11/30 01:16:00;;;;;;;36.50;15.38;;;;;;;-6.47;56.35;102167.44;6194643;23;20076;-85
2022/11/30 01:18:29;;;;;;;30.00;13.02;;;;;;;-6.21;56.68;102231.75;6194975;23;20021;-83
2022/11/30 01:21:05;;;;;;;41.13;13.10;;;;;;;-6.06;56.13;102226.09;6144121;23;20100;-84
2022/11/30 01:23:32;;;;;;;36.60;14.77;;;;;;;-6.00;55.62;102209.59;6195627;23;20056;-85
2022/11/30 01:26:02;;;;;;;31.52;13.93;;;;;;;-6.05;54.96;102210.00;6195995;23;20013;-89
2022/11/30 01:28:29;;;;;;;39.00;13.75;;;;;;;-5.98;55.44;102231.63;6169487;23;20020;-84
2022/11/30 01:31:00;;;;;;;38.85;14.20;;;;;;;-6.15;55.29;102198.47;6193405;23;20024;-83
2022/11/30 01:33:26;;;;;;;34.90;14.23;;;;;;;-6.01;55.43;102235.38;6193737;23;20021;-85
2022/11/30 01:36:24;;;;;;;43.35;14.93;;;;;;;-6.06;55.73;102221.63;6118701;23;20024;-85
2022/11/30 01:38:54;;;;;;;36.75;14.05;;;;;;;-6.08;55.40;102196.09;6020074;23;20026;-85
2022/11/30 01:41:26;;;;;;;32.42;13.60;;;;;;;-6.12;56.07;102192.00;6044638;23;20027;-86
2022/11/30 01:44:17;;;;;;;38.65;15.23;;;;;;;-6.06;55.20;102202.13;6020695;23;20047;-84
2022/11/30 01:46:59;;;;;;;45.53;15.45;;;;;;;-5.96;54.53;102213.66;6019711;23;20417;-84
2022/11/30 01:49:30;;;;;;;41.38;15.13;;;;;;;-6.06;55.37;102205.66;6045377;23;20023;-85
2022/11/30 01:52:12;;;;;;;39.00;14.45;;;;;;;-6.16;56.24;102223.38;6022790;23;20020;-85
2022/11/30 01:54:46;;;;;;;33.65;14.48;;;;;;;-6.00;55.99;102226.41;6044061;23;20023;-86
2022/11/30 01:57:36;;;;;;;41.65;14.43;;;;;;;-6.10;55.96;102212.19;6021307;23;20030;-85
2022/11/30 02:00:06;;;;;;;43.17;15.63;;;;;;;-6.11;55.08;102225.66;6045498;23;20019;-87
2022/11/30 02:03:01;;;;;;;42.05;13.85;;;;;;;-6.30;56.15;102224.56;6056712;23;20027;-85
2022/11/30 02:05:28;;;;;;;34.70;15.07;;;;;;;-6.79;56.31;102169.34;6053388;23;20030;-85
2022/11/30 02:07:54;;;;;;;30.05;14.95;;;;;;;-6.50;56.58;102230.75;6047793;23;20539;-85
2022/11/30 02:10:34;;;;;;;35.58;15.00;;;;;;;-6.40;56.44;102224.50;5973181;23;20023;-84
2022/11/30 02:13:42;;;;;;;37.70;15.02;;;;;;;-6.43;56.89;102222.09;6042698;23;20159;-84
2022/11/30 02:16:28;;;;;;;32.47;14.68;;;;;;;-6.70;56.42;102158.75;6176600;23;20028;-83
2022/11/30 02:19:09;;;;;;;40.95;15.40;;;;;;;-6.35;56.18;102196.66;6142302;23;20021;-85
2022/11/30 02:22:17;;;;;;;42.58;15.50;;;;;;;-6.38;56.19;102221.72;6192112;23;20021;-84
2022/11/30 02:25:09;;;;;;;34.78;14.88;;;;;;;-6.78;56.49;102173.69;6043307;23;20097;-84
2022/11/30 02:28:14;;;;;;;34.50;15.20;;;;;;;-6.52;56.51;102196.28;6020498;23;20023;-84
2022/11/30 02:30:45;;;;;;;42.83;15.65;;;;;;;-6.73;56.84;102192.75;6046934;23;20019;-84
2022/11/30 02:33:15;;;;;;;35.78;13.95;;;;;;;-6.44;56.77;102215.09;6060387;23;20025;-84
2022/11/30 02:35:46;;;;;;;49.83;16.70;;;;;;;-6.30;56.17;102221.91;6051301;23;20023;-84
2022/11/30 02:38:14;;;;;;;35.17;16.13;;;;;;;-6.34;55.77;102215.16;6046133;23;20107;-86
2022/11/30 02:40:40;;;;;;;41.85;16.13;;;;;;;-6.52;55.72;102188.31;6019207;23;20102;-83
2022/11/30 02:43:06;;;;;;;36.83;15.88;;;;;;;-6.75;56.52;102221.31;6042582;23;20102;-84
2022/11/30 02:45:35;;;;;;;43.10;16.90;;;;;;;-6.94;56.91;102200.72;6042316;23;20015;-83
2022/11/30 02:48:07;;;;;;;43.10;16.88;;;;;;;-7.00;57.67;102212.72;6042327;23;20452;-84
2022/11/30 02:50:51;;;;;;;37.50;16.63;;;;;;;-6.82;57.24;102209.50;6043643;23;20019;-83
2022/11/30 02:53:22;;;;;;;39.95;16.52;;;;;;;-7.01;56.84;102189.75;6043162;23;20072;-82
2022/11/30 02:55:49;;;;;;;38.50;15.82;;;;;;;-7.04;56.86;102184.69;6041583;23;20023;-85
2022/11/30 02:58:18;;;;;;;44.72;17.33;;;;;;;-6.96;56.89;102211.47;6041962;23;20019;-83
2022/11/30 03:00:46;;;;;;;51.22;16.10;;;;;;;-7.20;57.14;102216.16;6087019;23;20034;-84
2022/11/30 03:03:12;;;;;;;;;;;;;;;-7.01;56.97;102208.38;6196875;23;20047;-82
2022/11/30 03:05:38;;;;;;;41.63;16.02;;;;;;;-7.10;56.57;102178.06;6166362;23;19927;-84
2022/11/30 03:08:05;;;;;;;35.60;16.05;;;;;;;-6.72;55.68;102211.28;6192793;23;20021;-84
2022/11/30 03:10:32;;;;;;;42.97;17.20;;;;;;;-6.83;55.50;102197.16;6194058;23;20024;-85
2022/11/30 03:12:59;;;;;;;45.45;17.65;;;;;;;-6.99;55.24;102145.25;6120460;23;20044;-84
2022/11/30 03:15:27;;;;;;;37.13;16.27;;;;;;;-6.58;55.07;102210.09;6192887;23;20021;-84
2022/11/30 03:17:53;;;;;;;37.55;16.02;;;;;;;-7.04;55.02;102176.72;6193068;23;20114;-85
2022/11/30 03:20:20;;;;;;;46.75;18.05;;;;;;;-6.86;55.15;102193.78;6194469;23;20020;-85
2022/11/30 03:22:50;;;;;;;44.90;17.13;;;;;;;-6.77;55.29;102208.16;6167265;23;20025;-83
2022/11/30 03:25:19;;;;;;;43.83;15.95;;;;;;;-6.63;55.42;102206.97;6192933;23;20021;-83
2022/11/30 03:32:06;;;;;;;37.50;15.73;;;;;;;-6.74;56.01;102205.22;6042264;23;20023;-83
2022/11/30 03:34:39;;;;;;;51.42;16.15;;;;;;;-7.56;55.47;102061.44;6046187;23;20038;-85
2022/11/30 03:37:05;;;;;;;33.15;14.80;;;;;;;-7.02;55.37;102136.69;6006537;23;20034;-84
2022/11/30 03:39:31;;;;;;;42.72;16.00;;;;;;;-6.72;55.35;102181.13;6023297;23;20373;-84
2022/11/30 03:41:57;;;;;;;35.83;15.20;;;;;;;-6.50;55.03;102198.81;5997291;23;20099;-83
2022/11/30 03:44:25;;;;;;;41.92;16.15;;;;;;;-6.44;54.54;102195.63;6004083;23;20019;-83
2022/11/30 03:46:52;;;;;;;37.17;16.42;;;;;;;-6.42;54.94;102201.66;6023299;23;20110;-83
2022/11/30 03:49:18;;;;;;;43.28;15.55;;;;;;;-6.54;54.17;102187.56;5997848;23;20024;-84
2022/11/30 03:51:46;;;;;;;43.72;15.05;;;;;;;-6.75;54.57;102157.50;5996741;23;20075;-85
2022/11/30 03:54:13;;;;;;;44.80;16.58;;;;;;;-6.88;55.23;102174.47;6021677;23;20019;-83
2022/11/30 03:56:39;;;;;;;38.17;15.65;;;;;;;-6.80;55.36;102184.44;6022495;23;20095;-84
2022/11/30 03:59:32;;;;;;;36.92;15.95;;;;;;;-6.97;55.80;102206.31;6046230;23;20023;-85
2022/11/30 04:02:02;;;;;;;37.95;15.63;;;;;;;-7.26;56.57;102184.78;6044452;23;20074;-84
2022/11/30 04:04:31;;;;;;;38.33;16.65;;;;;;;-7.17;56.45;102195.50;6020477;23;20019;-83
2022/11/30 04:06:58;;;;;;;37.20;16.30;;;;;;;-7.37;56.44;102180.34;6067089;23;20054;-84
2022/11/30 04:09:24;;;;;;;48.38;17.33;;;;;;;-7.45;56.65;102196.91;6084002;23;20049;-84
2022/11/30 04:11:51;;;;;;;36.10;15.73;;;;;;;-7.44;57.30;102200.41;6131907;23;20073;-84
2022/11/30 04:14:18;;;;;;;50.25;15.68;;;;;;;-7.22;56.90;102194.19;6108234;23;20021;-86
2022/11/30 04:16:44;;;;;;;37.13;15.70;;;;;;;-7.36;56.20;102166.06;6106406;23;20050;-86
2022/11/30 04:19:10;;;;;;;36.17;16.38;;;;;;;-7.43;56.24;102170.22;6108320;23;20028;-86
2022/11/30 04:21:36;;;;;;;39.58;16.13;;;;;;;-7.45;56.49;102212.88;6111479;23;20033;-85
2022/11/30 04:24:05;;;;;;;42.00;16.95;;;;;;;-7.51;57.19;102204.53;6080839;23;20053;-88
2022/11/30 04:26:34;;;;;;;38.97;16.67;;;;;;;-7.62;57.04;102200.06;6132463;23;20097;-85
2022/11/30 04:29:04;;;;;;;37.45;15.25;;;;;;;-7.66;57.08;102203.94;6104079;23;20026;-85
2022/11/30 04:31:30;;;;;;;38.25;16.30;;;;;;;-7.45;56.90;102204.91;6131220;23;20053;-85
2022/11/30 06:35:47;;;;;;;40.95;15.38;;;;;;;-7.59;54.41;102202.47;6215289;22;19927;-89
2022/11/30 06:38:13;;;;;;;37.75;15.68;;;;;;;-7.31;54.21;102224.19;6193533;23;20044;-88
2022/11/30 06:40:39;;;;;;;44.58;17.08;;;;;;;-7.03;53.58;102231.56;6142654;23;20060;-88
2022/11/30 06:43:05;;;;;;;36.05;15.45;;;;;;;-7.05;53.28;102212.25;6168744;23;20016;-88
2022/11/30 06:45:31;;;;;;;43.50;16.15;;;;;;;-6.83;53.28;102251.22;6220002;23;20016;-89
2022/11/30 06:47:57;;;;;;;39.00;15.90;;;;;;;-6.68;52.99;102252.59;6169681;23;20063;-88
2022/11/30 06:50:24;;;;;;;47.17;17.67;;;;;;;-6.57;52.69;102266.81;6192950;23;20103;-88
2022/11/30 06:52:50;;;;;;;47.53;18.40;;;;;;;-6.75;53.01;102224.81;6117279;23;20067;-89
2022/11/30 06:55:17;;;;;;;49.20;18.20;;;;;;;-6.57;52.86;102257.03;6191591;23;20023;-90
2022/11/30 06:57:47;;;;;;;45.65;18.17;;;;;;;-6.35;53.03;102282.69;6166814;23;20493;-87
2022/11/30 07:00:16;;;;;;;49.45;18.00;;;;;;;-6.49;52.69;102238.63;6193467;23;20024;-89
2022/11/30 07:04:05;;;;;;;46.83;19.65;;;;;;;-5.97;52.48;102278.56;6195880;23;20091;-88
2022/11/30 07:07:25;;;;;;;50.72;19.58;;;;;;;-5.88;52.00;102284.91;6194460;23;20103;-88
2022/11/30 07:10:49;;;;;;;48.42;18.77;;;;;;;-5.75;51.74;102278.38;6193582;23;20044;-89
2022/11/30 07:13:29;;;;;;;48.25;19.75;;;;;;;-6.13;51.63;102235.59;6221641;23;20028;-88
2022/11/30 07:16:07;;;;;;;53.13;19.98;;;;;;;-5.87;51.65;102276.78;6220156;23;20016;-88
2022/11/30 07:18:33;;;;;;;50.75;20.60;;;;;;;-6.16;52.00;102218.03;6189960;23;20017;-86
2022/11/30 07:21:01;;;;;;;52.08;20.33;;;;;;;-6.14;51.91;102240.06;6165484;23;20016;-86
2022/11/30 07:26:13;;;;;;;48.03;19.63;;;;;;;-5.87;52.14;102292.75;6168566;23;20017;-87
2022/11/30 07:28:50;;;;;;;51.55;20.33;;;;;;;-5.91;51.93;102289.50;6139673;23;20040;-86
2022/11/30 07:31:33;;;;;;;54.90;21.02;;;;;;;-5.97;52.28;102263.44;6165072;23;20519;-86
2022/11/30 07:34:10;;;;;;;53.80;22.90;;;;;;;-5.61;52.18;102295.81;6218499;23;20156;-85
2022/11/30 07:36:36;;;;;;;;;;;;;;;-5.55;51.77;102295.28;6198637;23;20016;-85
2022/11/30 07:39:03;;;;;;;61.40;22.70;;;;;;;-5.55;51.82;102289.97;6239710;23;19931;-85
2022/11/30 07:41:29;;;;;;;59.83;25.00;;;;;;;-5.60;52.06;102283.34;6172367;23;20027;-87
2022/11/30 07:43:55;;;;;;;55.07;22.60;;;;;;;-5.84;52.18;102228.56;6220139;23;20025;-88
2022/11/30 07:46:21;;;;;;;57.80;23.55;;;;;;;-5.51;51.79;102266.56;6221051;23;20020;-89
2022/11/30 07:48:51;;;;;;;59.47;25.35;;;;;;;-5.28;51.94;102296.50;6145284;23;20099;-88
2022/11/30 07:51:22;;;;;;;65.10;26.80;;;;;;;-5.46;51.84;102257.19;6221102;23;20076;-88
2022/11/30 07:53:48;;;;;;;;;;;;;;;-5.08;51.93;102292.06;6220790;23;20104;-86
2022/11/30 07:56:17;;;;;;;54.17;21.92;;;;;;;-5.00;51.49;102295.75;6173051;23;20292;-87
2022/11/30 07:58:44;;;;;;;51.28;22.55;;;;;;;-5.02;51.91;102289.69;6225177;23;20028;-90
2022/11/30 08:01:30;;;;;;;55.45;22.90;;;;;;;-4.97;51.69;102291.94;6164131;23;20108;-93
2022/11/30 08:04:12;;;;;;;61.00;22.73;;;;;;;-4.80;51.46;102298.44;6164592;23;20028;-88
2022/11/30 08:06:39;;;;;;;59.75;24.33;;;;;;;-4.91;51.53;102250.53;6144725;23;20033;-92
2022/11/30 08:09:11;;;;;;;56.80;24.10;;;;;;;-4.88;51.73;102247.59;6156884;23;20028;-88
2022/11/30 08:11:41;;;;;;;62.08;23.50;;;;;;;-4.58;51.84;102283.97;6183237;23;20001;-88
2022/11/30 08:14:48;;;;;;;63.10;24.00;;;;;;;-5.10;51.65;102206.00;6156433;23;20017;-90
2022/11/30 08:17:39;;;;;;;63.15;25.65;;;;;;;-4.78;52.16;102291.97;6122040;23;20068;-92
2022/11/30 08:23:13;;;;;;;64.03;25.88;;;;;;;-4.56;52.55;102284.69;6162201;23;20017;-91
2022/11/30 08:25:39;;;;;;;64.00;24.88;;;;;;;-4.86;52.56;102253.66;6151386;23;20038;-91
2022/11/30 08:28:39;;;;;;;62.22;25.75;;;;;;;-4.44;52.65;102280.03;6163511;23;20021;-90
2022/11/30 08:38:31;;;;;;;66.32;26.27;;;;;;;-4.46;52.48;102226.78;6136149;23;20109;-91
2022/11/30 08:41:00;;;;;;;66.00;26.45;;;;;;;-4.69;52.84;102207.56;6140641;23;20420;-91
2022/11/30 08:43:36;;;;;;;59.58;24.08;;;;;;;-4.46;52.83;102249.97;6091597;23;20029;-90
2022/11/30 08:46:06;;;;;;;59.03;24.83;;;;;;;-4.81;53.18;102198.84;6099812;23;20081;-91
2022/11/30 08:51:06;;;;;;;71.60;26.17;;;;;;;-4.46;54.07;102269.50;6139061;23;20014;-89
2022/11/30 08:53:33;;;;;;;73.85;27.17;;;;;;;-4.59;54.49;102253.78;6112838;23;20024;-90
2022/11/30 08:56:02;;;;;;;86.43;28.90;;;;;;;-4.41;53.87;102253.88;6068202;23;20018;-90
2022/11/30 08:58:37;;;;;;;68.15;27.58;;;;;;;-4.29;54.12;102266.13;6113827;23;20021;-91
2022/11/30 09:01:08;;;;;;;78.28;29.10;;;;;;;-4.44;54.09;102230.13;6141163;23;20022;-92
2022/11/30 09:04:11;;;;;;;72.60;26.38;;;;;;;-4.11;54.08;102274.22;6097498;23;20025;-89
2022/11/30 09:07:08;;;;;;;73.72;25.77;;;;;;;-4.17;54.21;102269.47;6015849;23;20498;-90
2022/11/30 09:09:58;;;;;;;72.15;26.48;;;;;;;-4.47;55.08;102261.63;5981420;24;20025;-92
2022/11/30 09:12:24;;;;;;;77.32;29.33;;;;;;;-4.77;54.92;102202.94;5890807;24;20028;-90
2022/11/30 09:15:12;;;;;;;73.00;27.13;;;;;;;-4.86;54.94;102177.09;5979857;24;20021;-92
2022/11/30 09:17:38;;;;;;;71.70;25.38;;;;;;;-4.91;55.29;102146.47;5933215;24;20044;-92
2022/11/30 09:23:03;;;;;;;56.42;23.42;;;;;;;-4.55;55.28;102191.09;6160260;23;20108;-93
2022/11/30 09:25:49;;;;;;;61.55;24.83;;;;;;;-4.48;55.07;102244.78;6157704;23;20002;-91
2022/11/30 09:28:16;;;;;;;;;;;;;;;-4.40;55.26;102257.41;6154441;23;19998;-92
2022/11/30 09:30:48;;;;;;;65.60;25.15;;;;;;;-4.61;55.41;102231.72;6156336;23;19908;-93
2022/11/30 09:33:28;;;;;;;55.95;24.23;;;;;;;-4.99;55.50;102198.72;6105123;23;20005;-94
2022/11/30 09:36:16;;;;;;;67.47;25.10;;;;;;;-4.94;55.92;102206.28;6151251;23;20001;-93
2022/11/30 09:39:07;;;;;;;60.35;22.08;;;;;;;-4.74;55.52;102213.31;6181179;23;20080;-92
2022/11/30 09:41:53;;;;;;;52.67;22.23;;;;;;;-4.31;55.11;102257.38;6124730;23;20040;-91
2022/11/30 09:45:14;;;;;;;66.53;25.42;;;;;;;-4.56;55.11;102205.44;6124854;23;20058;-92
2022/11/30 09:48:00;;;;;;;68.45;26.60;;;;;;;-4.09;54.82;102261.56;6147292;23;20021;-94
2022/11/30 09:50:36;;;;;;;70.15;25.55;;;;;;;-4.22;54.88;102223.66;6128726;23;20081;-95
2022/11/30 09:53:39;;;;;;;73.80;26.05;;;;;;;-4.00;54.79;102251.88;6129453;23;20021;-95
2022/11/30 09:56:31;;;;;;;74.82;24.55;;;;;;;-4.15;55.53;102246.13;6128175;23;20061;-94
2022/11/30 10:02:32;;;;;;;59.22;22.25;;;;;;;-3.96;56.78;102245.22;6157847;23;20031;-92
2022/11/30 10:08:45;;;;;;;73.35;24.00;;;;;;;-4.02;57.60;102216.41;6156958;23;20021;-94
2022/11/30 10:11:47;;;;;;;62.35;24.27;;;;;;;-3.67;56.97;102247.81;6126744;23;20025;-94
2022/11/30 10:14:41;;;;;;;64.15;24.42;;;;;;;-3.80;56.70;102250.81;6178798;23;20012;-91
2022/11/30 10:17:37;;;;;;;59.53;24.52;;;;;;;-3.70;57.62;102244.59;6090120;23;20055;-94
2022/11/30 10:20:22;;;;;;;62.08;23.55;;;;;;;-3.52;57.34;102248.13;6143353;23;20060;-92
2022/11/30 10:23:41;;;;;;;64.47;23.90;;;;;;;-3.35;56.90;102246.50;6131407;23;20032;-89
2022/11/30 10:26:37;;;;;;;61.65;24.13;;;;;;;-3.58;56.50;102193.41;6041299;23;20032;-94
2022/11/30 10:30:26;;;;;;;54.83;23.30;;;;;;;-3.12;56.34;102245.09;6064159;23;20034;-92
2022/11/30 10:32:56;;;;;;;57.65;21.50;;;;;;;-3.31;55.73;102226.50;6037966;23;20424;-93
2022/11/30 10:36:01;;;;;;;56.28;22.15;;;;;;;-3.18;55.45;102239.50;6015546;23;20114;-92
2022/11/30 10:38:47;;;;;;;56.17;23.23;;;;;;;-3.54;55.06;102185.97;5981231;23;20067;-91
2022/11/30 10:41:46;;;;;;;63.58;23.63;;;;;;;-3.49;54.81;102206.91;5984106;24;20056;-93
2022/11/30 10:44:58;;;;;;;59.03;23.27;;;;;;;-3.40;55.03;102206.00;5949043;24;20004;-94
2022/11/30 10:47:52;;;;;;;61.10;23.08;;;;;;;-3.03;55.40;102234.50;5906739;24;20045;-92
2022/11/30 10:51:37;;;;;;;57.00;23.25;;;;;;;-3.30;54.79;102177.34;5875103;24;20026;-92
2022/11/30 10:55:23;;;;;;;56.53;22.95;;;;;;;-3.09;54.94;102228.72;5842398;24;20037;-94
2022/11/30 10:58:17;;;;;;;64.18;25.35;;;;;;;-2.95;54.82;102232.72;5841678;24;20031;-94
2022/11/30 11:01:03;;;;;;;66.07;25.38;;;;;;;-3.12;55.23;102239.75;5784783;24;20011;-89
2022/11/30 11:03:37;;;;;;;66.72;25.05;;;;;;;-3.12;55.08;102229.03;5849435;24;20102;-90
2022/11/30 11:10:24;;;;;;;65.82;25.67;;;;;;;-3.27;54.66;102211.84;5862984;24;20437;-89
2022/11/30 11:12:56;;;;;;;70.53;25.85;;;;;;;-3.41;54.08;102174.88;5864698;24;20086;-93
2022/11/30 11:15:26;;;;;;;68.63;27.45;;;;;;;-3.25;54.75;102225.88;5913802;24;20031;-89
2022/11/30 11:18:38;;;;;;;72.13;28.52;;;;;;;-3.36;54.72;102178.78;5947104;24;20021;-89
2022/11/30 11:21:10;;;;;;;78.15;29.48;;;;;;;-3.13;54.91;102226.53;5927719;23;20034;-94
2022/11/30 11:23:42;;;;;;;73.47;27.75;;;;;;;-3.00;54.53;102234.19;6009365;23;20014;-95
2022/11/30 11:26:28;;;;;;;68.53;26.40;;;;;;;-3.51;54.99;102179.44;5989023;23;20023;-91
2022/11/30 11:29:34;;;;;;;64.97;25.63;;;;;;;-3.26;54.95;102223.38;6035243;23;20024;-91
2022/11/30 11:32:26;;;;;;;64.57;27.27;;;;;;;-3.59;55.33;102193.56;6086695;23;20018;-89
2022/11/30 11:35:32;;;;;;;66.65;26.60;;;;;;;-3.33;55.43;102215.09;6130537;23;20021;-89
2022/11/30 11:38:30;;;;;;;69.72;25.33;;;;;;;-3.30;55.35;102228.19;6131091;23;20029;-87
2022/11/30 11:41:39;;;;;;;67.93;25.05;;;;;;;-3.75;55.80;102191.53;6151977;23;20014;-91
2022/11/30 11:44:08;;;;;;;66.57;25.42;;;;;;;-3.51;55.93;102238.28;6152460;23;20014;-91
2022/11/30 11:47:25;;;;;;;74.50;26.33;;;;;;;-3.51;55.78;102232.94;6151354;23;20025;-90
2022/11/30 11:50:30;;;;;;;69.95;25.70;;;;;;;-3.72;56.12;102185.91;6128581;23;20077;-90
2022/11/30 11:53:27;;;;;;;66.13;24.83;;;;;;;-3.35;55.20;102230.47;6082490;23;20069;-94
2022/11/30 11:56:26;;;;;;;68.03;23.98;;;;;;;-3.35;55.35;102228.63;6145571;23;20499;-93
2022/11/30 11:59:21;;;;;;;60.58;22.60;;;;;;;-3.30;55.22;102228.19;6086842;23;20018;-92
2022/11/30 12:01:56;;;;;;;59.45;23.58;;;;;;;-3.32;54.77;102243.53;6090944;23;20029;-93
2022/11/30 12:04:49;;;;;;;55.47;23.00;;;;;;;-3.39;54.74;102191.63;6114463;23;20022;-92
2022/11/30 12:07:34;;;;;;;58.10;22.73;;;;;;;-3.15;54.48;102232.00;6107863;23;20057;-89
2022/11/30 12:10:29;;;;;;;58.30;22.35;;;;;;;-3.24;54.81;102232.94;6144069;23;20022;-92
2022/11/30 12:13:11;;;;;;;;;;;;;;;-3.19;54.59;102227.97;6124796;23;20025;-92
2022/11/30 12:17:15;;;;;;;58.45;21.40;;;;;;;-3.23;54.56;102247.16;6116925;23;19928;-93
2022/11/30 12:20:22;;;;;;;69.28;23.25;;;;;;;-3.39;54.22;102196.97;6087654;23;20062;-89
2022/11/30 12:23:13;;;;;;;60.45;21.92;;;;;;;-3.13;54.22;102245.25;6055052;23;20033;-91
2022/11/30 12:25:56;;;;;;;61.58;22.88;;;;;;;-3.27;54.13;102222.53;6066233;23;20012;-89
2022/11/30 12:28:39;;;;;;;59.95;22.63;;;;;;;-3.22;54.21;102238.97;6063718;23;20042;-89
2022/11/30 12:31:13;;;;;;;61.92;22.92;;;;;;;-3.84;54.42;102171.03;6033299;23;20052;-91
2022/11/30 12:33:53;;;;;;;65.65;23.92;;;;;;;-3.50;54.69;102243.50;6023321;23;20533;-90
2022/11/30 12:36:38;;;;;;;63.13;23.38;;;;;;;-3.84;55.19;102181.72;5999297;23;20079;-90
2022/11/30 12:39:13;;;;;;;61.08;24.55;;;;;;;-3.93;54.69;102161.25;6023410;23;20027;-91
2022/11/30 12:41:50;;;;;;;58.47;24.00;;;;;;;-3.75;54.73;102188.03;6000234;23;20056;-88
2022/11/30 12:44:43;;;;;;;69.07;24.75;;;;;;;-3.52;54.64;102231.25;6002550;23;20050;-88
2022/11/30 12:47:30;;;;;;;62.05;24.67;;;;;;;-3.96;54.73;102161.56;6023475;23;20028;-89
2022/11/30 12:50:28;;;;;;;58.65;25.13;;;;;;;-3.67;54.84;102236.28;6019771;23;20019;-91
2022/11/30 12:53:06;;;;;;;57.00;24.65;;;;;;;-3.60;54.92;102251.56;5950633;23;20024;-89
2022/11/30 12:55:55;;;;;;;72.25;27.85;;;;;;;-3.65;55.15;102253.00;5995138;23;20050;-91
2022/11/30 12:58:51;;;;;;;77.15;28.67;;;;;;;-3.74;55.62;102252.06;6028707;23;20415;-87
2022/11/30 13:01:53;;;;;;;73.07;27.80;;;;;;;-3.79;55.73;102254.31;6054771;23;20023;-91
2022/11/30 13:04:28;;;;;;;;;;;;;;;-3.86;55.65;102258.56;6059444;23;20029;-90
2022/11/30 13:07:03;;;;;;;86.07;37.08;;;;;;;-3.96;56.20;102265.78;6073671;23;19932;-89
2022/11/30 13:09:37;;;;;;;89.82;37.22;;;;;;;-4.00;56.27;102254.53;6122128;23;20024;-93
2022/11/30 13:12:34;;;;;;;77.78;32.45;;;;;;;-4.17;56.97;102269.47;6149645;23;20033;-93
2022/11/30 13:15:19;;;;;;;76.55;30.00;;;;;;;-4.59;57.27;102232.41;6132464;23;20051;-93
2022/11/30 13:17:56;;;;;;;68.15;25.80;;;;;;;-4.59;57.70;102226.25;6151646;23;20481;-91
2022/11/30 13:20:35;;;;;;;85.32;27.20;;;;;;;-4.60;57.84;102240.56;6146989;23;20017;-92
2022/11/30 13:23:44;;;;;;;58.28;25.30;;;;;;;-4.46;57.83;102263.34;6121588;23;20026;-94
2022/11/30 13:26:27;;;;;;;64.75;24.88;;;;;;;-4.58;58.26;102255.44;6151944;23;20029;-89
2022/11/30 13:29:16;;;;;;;64.10;26.45;;;;;;;-4.70;58.32;102251.25;6124700;23;20017;-93
2022/11/30 13:31:56;;;;;;;62.10;25.17;;;;;;;-4.73;58.61;102255.03;6129112;23;20025;-94
2022/11/30 13:34:30;;;;;;;65.70;24.45;;;;;;;-4.91;58.71;102214.03;6176443;23;20048;-93
2022/11/30 13:37:21;;;;;;;58.45;23.95;;;;;;;-5.02;58.82;102244.34;6148807;23;20018;-93
2022/11/30 13:39:52;;;;;;;61.25;25.45;;;;;;;-4.87;58.85;102247.44;6148661;23;20077;-94
2022/11/30 13:42:43;;;;;;;64.03;25.67;;;;;;;-4.99;59.01;102245.91;6100603;23;20077;-92
2022/11/30 13:45:35;;;;;;;68.63;26.33;;;;;;;-5.06;58.96;102248.28;6119410;23;20021;-91
2022/11/30 13:48:30;;;;;;;57.65;26.10;;;;;;;-5.21;58.96;102228.31;6029711;23;20131;-92
2022/11/30 13:50:58;;;;;;;65.55;25.58;;;;;;;-5.48;59.05;102178.31;6031681;23;20023;-91
2022/11/30 13:53:36;;;;;;;65.57;26.15;;;;;;;-4.98;58.84;102247.59;6005894;23;20015;-90
2022/11/30 13:56:26;;;;;;;60.88;24.42;;;;;;;-5.08;59.00;102231.56;6059852;23;20019;-90
2022/11/30 13:59:24;;;;;;;52.10;23.95;;;;;;;-5.08;59.03;102250.22;6087513;23;20059;-90
2022/11/30 14:02:12;;;;;;;65.18;23.70;;;;;;;-5.21;59.06;102234.50;6064085;23;20019;-92
2022/11/30 14:05:20;;;;;;;62.90;21.88;;;;;;;-5.24;59.62;102245.44;6073117;23;20022;-90
2022/11/30 14:08:20;;;;;;;66.18;25.17;;;;;;;-5.15;59.43;102243.78;6080629;23;20076;-90
2022/11/30 14:11:13;;;;;;;70.38;26.58;;;;;;;-5.33;59.67;102232.94;6028631;23;20006;-90
2022/11/30 14:13:46;;;;;;;86.72;30.35;;;;;;;-5.42;59.49;102220.41;6031196;23;20031;-90
2022/11/30 14:16:22;;;;;;;;;;;;;;;-5.24;59.49;102242.75;6052635;23;20019;-91
2022/11/30 14:18:49;;;;;;;87.15;30.38;;;;;;;-5.77;59.45;102140.94;6026753;23;19918;-90
2022/11/30 14:21:30;;;;;;;87.03;29.48;;;;;;;-5.23;59.53;102233.81;6054696;23;20019;-92
2022/11/30 14:24:19;;;;;;;71.85;27.95;;;;;;;-5.28;59.72;102229.84;6046623;23;20027;-89
2022/11/30 14:26:49;;;;;;;71.22;27.38;;;;;;;-5.33;59.56;102230.28;6086539;23;20045;-89
2022/11/30 14:29:22;;;;;;;81.18;28.45;;;;;;;-5.34;59.39;102219.72;6057720;23;20014;-91
2022/11/30 14:31:58;;;;;;;70.70;27.70;;;;;;;-5.79;59.50;102173.06;6093877;23;20014;-91
2022/11/30 14:34:35;;;;;;;82.40;29.50;;;;;;;-5.68;59.95;102188.09;6065459;23;20025;-87
2022/11/30 14:37:22;;;;;;;85.35;30.83;;;;;;;-5.94;59.81;102159.28;6117262;23;20021;-88
2022/11/30 14:39:52;;;;;;;75.10;26.92;;;;;;;-5.53;60.14;102233.84;6047396;23;20018;-90
2022/11/30 14:42:25;;;;;;;77.65;27.58;;;;;;;-5.93;60.15;102174.31;6086362;23;20162;-89
2022/11/30 14:44:55;;;;;;;87.93;29.58;;;;;;;-6.15;60.17;102146.03;6061458;23;20028;-89